Time;durP1;ratioP1;P1;durP2;ratioP2;P2;SDS_P1;SDS_P2;PMS_P1;PMS_P2;Temp;Humidity;BMP_temperature;BMP_pressure;BME280_temperature;BME280_humidity;BME280_pressure;Samples;Min_cycle;Max_cycle;Signal;HPM_P1;HPM_P2
2021/11/05 00:00:25;;;;;;;3.46;2.56;;;;;;;7.00;92.77;99181.16;2331210;68;20035;-80
2021/11/05 00:03:29;;;;;;;;;;;;;;;6.99;92.95;99177.72;2333183;69;20324;-81
2021/11/05 00:06:34;;;;;;;2.46;2.26;;;;;;;7.00;93.10;99184.63;2341956;68;20011;-80
2021/11/05 00:09:53;;;;;;;4.32;2.90;;;;;;;7.01;93.24;99185.50;2343755;68;20316;-80
2021/11/05 00:12:57;;;;;;;7.53;4.53;;;;;;;7.02;93.36;99189.81;2340506;68;20298;-80
2021/11/05 00:16:01;;;;;;;3.17;2.89;;;;;;;7.02;93.42;99185.53;2333683;68;20288;-81
2021/11/05 00:19:05;;;;;;;3.29;3.00;;;;;;;7.04;93.37;99190.69;2339615;68;20245;-82
2021/11/05 00:22:08;;;;;;;3.09;2.89;;;;;;;7.05;93.51;99189.84;2346437;68;20253;-80
2021/11/05 00:25:14;;;;;;;3.90;2.69;;;;;;;7.04;93.53;99194.13;2351689;68;20316;-80
2021/11/05 00:28:42;;;;;;;2.76;2.56;;;;;;;7.05;93.48;99193.28;2343939;68;20272;-81
2021/11/05 00:31:58;;;;;;;3.00;2.80;;;;;;;7.06;93.48;99195.00;2336521;66;40738;-80
2021/11/05 00:35:21;;;;;;;3.09;2.72;;;;;;;7.08;93.38;99207.91;2311971;69;20314;-81
2021/11/05 00:38:24;;;;;;;4.61;2.92;;;;;;;7.05;93.25;99206.19;2318016;69;20309;-80
2021/11/05 00:41:27;;;;;;;3.31;3.01;;;;;;;7.08;93.27;99210.50;2329146;69;20308;-80
2021/11/05 00:44:30;;;;;;;3.45;2.83;;;;;;;7.08;93.19;99205.34;2318455;69;20304;-81
2021/11/05 00:47:33;;;;;;;3.17;2.75;;;;;;;7.10;93.43;99208.78;2331896;66;32604;-80
2021/11/05 00:50:37;;;;;;;3.30;3.00;;;;;;;7.08;93.55;99211.38;2321713;69;20252;-80
2021/11/05 00:53:43;;;;;;;4.21;2.86;;;;;;;7.10;93.66;99213.94;2313542;69;20271;-81
2021/11/05 00:56:45;;;;;;;3.08;2.88;;;;;;;7.10;93.84;99217.41;2329813;69;20293;-80
2021/11/05 00:59:49;;;;;;;3.00;2.80;;;;;;;7.11;94.03;99220.84;2320165;69;20276;-80
2021/11/05 01:02:52;;;;;;;2.96;2.76;;;;;;;7.13;94.12;99216.56;2330744;67;43062;-80
2021/11/05 01:05:56;;;;;;;3.40;3.10;;;;;;;7.14;94.06;99218.28;2327673;68;20300;-81
2021/11/05 01:09:10;;;;;;;3.91;3.08;;;;;;;7.15;94.00;99223.44;2325624;69;20326;-80
2021/11/05 01:12:46;;;;;;;3.08;2.70;;;;;;;7.16;93.91;99226.88;2329274;69;20266;-81
2021/11/05 01:15:52;;;;;;;2.63;2.42;;;;;;;7.16;93.88;99227.75;2318090;69;20283;-81
2021/11/05 01:18:55;;;;;;;6.45;3.05;;;;;;;7.18;94.01;99227.75;2334118;69;20250;-80
2021/11/05 01:21:58;;;;;;;3.11;2.70;;;;;;;7.18;93.90;99232.94;2318184;69;20300;-80
2021/11/05 01:25:01;;;;;;;3.64;2.90;;;;;;;7.18;93.94;99231.25;2326542;69;20316;-80
2021/11/05 01:28:04;;;;;;;2.78;2.56;;;;;;;7.18;93.86;99238.09;2339606;69;20333;-81
2021/11/05 01:31:07;;;;;;;3.85;2.91;;;;;;;7.20;93.96;99242.44;2327546;69;20272;-80
2021/11/05 01:34:10;;;;;;;3.15;2.65;;;;;;;7.19;93.91;99245.00;2332294;69;20424;-81
2021/11/05 01:37:13;;;;;;;3.09;2.78;;;;;;;7.18;94.08;99240.66;2325285;69;20248;-81
2021/11/05 01:40:16;;;;;;;3.50;2.91;;;;;;;7.16;94.08;99235.50;2323158;69;20298;-80
2021/11/05 01:43:22;;;;;;;3.24;2.79;;;;;;;7.13;94.16;99247.53;2326205;69;20248;-81
2021/11/05 01:46:44;;;;;;;2.95;2.59;;;;;;;7.13;94.33;99245.81;2331177;69;20256;-81
2021/11/05 01:50:14;;;;;;;2.76;2.56;;;;;;;7.13;94.30;99242.38;2316219;69;20272;-80
2021/11/05 01:53:48;;;;;;;3.21;3.01;;;;;;;7.11;94.28;99250.09;2322870;69;20345;-80
2021/11/05 02:02:11;;;;;;;2.55;2.29;;;;;;;7.03;94.44;99256.06;2307146;67;40351;-81
2021/11/05 03:14:42;;;;;;;3.61;3.31;;;;;;;6.84;96.10;99335.06;2314338;69;20293;-81
2021/11/05 03:35:53;;;;;;;4.70;3.33;;;;;;;6.96;96.28;99360.97;2329241;68;20314;-81
2021/11/05 03:38:56;;;;;;;4.30;3.90;;;;;;;6.97;96.22;99360.13;2337540;68;20295;-82
2021/11/05 03:41:59;;;;;;;5.34;3.86;;;;;;;6.98;96.27;99364.44;2347744;68;20332;-82
2021/11/05 03:45:03;;;;;;;4.09;3.66;;;;;;;6.99;96.26;99368.75;2349833;68;20254;-83
2021/11/05 03:48:05;;;;;;;4.41;4.01;;;;;;;7.00;96.24;99374.78;2343688;69;20293;-82
2021/11/05 04:40:43;;;;;;;3.95;3.53;;;;;;;7.00;96.44;99457.38;2317394;68;20249;-81
2021/11/05 04:44:14;;;;;;;6.72;4.25;;;;;;;7.01;96.38;99465.16;2338052;68;20265;-82
2021/11/05 04:52:09;;;;;;;4.78;4.28;;;;;;;7.06;96.41;99481.56;2338198;68;20347;-82
2021/11/05 05:40:06;;;;;;;5.07;4.57;;;;;;;7.14;96.64;99549.63;2301803;69;20274;-82
2021/11/05 07:09:21;;;;;;;8.20;6.81;;;;;;;6.09;95.44;99671.88;2337655;68;20344;-82
2021/11/05 07:12:38;;;;;;;12.76;7.56;;;;;;;6.04;95.05;99673.53;2317666;69;21103;-79
2021/11/05 07:15:49;;;;;;;10.36;7.73;;;;;;;6.03;95.16;99679.53;2304190;69;985019;-80
2021/11/05 07:18:52;;;;;;;10.24;7.86;;;;;;;6.03;95.26;99690.69;2323191;69;21309;-80
2021/11/05 07:21:59;;;;;;;8.96;7.95;;;;;;;6.02;95.35;99694.13;2314294;69;20281;-80
2021/11/05 07:25:05;;;;;;;10.61;8.15;;;;;;;6.10;95.63;99701.13;2317423;69;20297;-80
2021/11/05 07:28:09;;;;;;;12.25;8.32;;;;;;;6.15;95.69;99702.94;2316736;69;20341;-79
2021/11/05 07:31:11;;;;;;;10.70;8.82;;;;;;;6.26;95.85;99713.44;2314918;67;25594;-80
2021/11/05 07:40:01;;;;;;;13.56;8.20;;;;;;;6.45;95.75;99723.25;2317765;69;20305;-82
2021/11/05 07:48:00;;;;;;;9.81;8.26;;;;;;;6.87;95.99;99750.63;2315444;69;20396;-81
2021/11/05 07:51:03;;;;;;;11.09;8.70;;;;;;;7.16;95.95;99764.84;2310523;69;20307;-80
2021/11/05 07:54:07;;;;;;;11.49;8.80;;;;;;;7.36;95.82;99769.44;2309557;69;20324;-79
2021/11/05 07:57:09;;;;;;;13.98;9.35;;;;;;;7.52;95.57;99771.38;2309873;69;20321;-79
2021/11/05 08:00:13;;;;;;;25.66;13.70;;;;;;;7.66;95.29;99782.78;2308877;69;20464;-79
2021/11/05 08:03:17;;;;;;;15.49;10.52;;;;;;;7.73;94.78;99794.09;2320353;67;24643;-79
2021/11/05 08:06:19;;;;;;;11.95;9.20;;;;;;;7.76;94.08;99791.53;2323792;69;20319;-80
2021/11/05 08:09:22;;;;;;;11.39;9.01;;;;;;;7.78;93.52;99795.00;2327007;69;20307;-79
2021/11/05 08:12:25;;;;;;;11.96;10.02;;;;;;;7.79;93.45;99810.53;2328564;69;20352;-79
2021/11/05 08:15:27;;;;;;;13.52;9.86;;;;;;;7.83;93.33;99817.47;2327206;68;20739;-80
2021/11/05 08:18:30;;;;;;;16.02;9.56;;;;;;;7.85;93.25;99818.38;2329367;69;20312;-80
2021/11/05 08:21:33;;;;;;;22.40;14.25;;;;;;;7.88;93.07;99820.13;2327086;69;20284;-80
2021/11/05 08:24:36;;;;;;;12.81;10.23;;;;;;;7.94;92.94;99827.97;2327096;68;20295;-80
2021/11/05 08:27:39;;;;;;;12.04;9.79;;;;;;;8.00;92.92;99828.03;2327860;69;20284;-79
2021/11/05 08:30:43;;;;;;;11.18;9.24;;;;;;;8.09;93.03;99829.91;2320058;66;45739;-80
2021/11/05 08:33:46;;;;;;;14.49;10.26;;;;;;;8.15;93.02;99830.84;2326780;68;20771;-79
2021/11/05 08:36:49;;;;;;;13.44;10.75;;;;;;;8.23;92.96;99843.84;2323332;69;20300;-79
2021/11/05 08:39:52;;;;;;;16.30;12.51;;;;;;;8.31;92.84;99854.31;2324592;69;20311;-79
2021/11/05 08:42:55;;;;;;;13.39;10.06;;;;;;;8.39;92.72;99858.75;2330418;68;20288;-80
2021/11/05 08:46:00;;;;;;;16.84;12.91;;;;;;;8.43;92.27;99865.69;2327720;66;29813;-80
2021/11/05 08:49:10;;;;;;;13.85;11.94;;;;;;;8.46;91.81;99862.28;2330178;69;20826;-81
2021/11/05 08:52:13;;;;;;;14.25;10.61;;;;;;;8.55;91.66;99871.84;2329039;69;20296;-80
2021/11/05 08:55:24;;;;;;;11.16;9.46;;;;;;;8.65;91.57;99871.13;2324776;69;20360;-80
2021/11/05 08:58:27;;;;;;;11.76;9.50;;;;;;;8.77;91.50;99873.81;2345911;68;20450;-81
2021/11/05 09:01:31;;;;;;;13.13;10.34;;;;;;;8.89;91.35;99879.13;2334099;69;20396;-81
2021/11/05 09:04:34;;;;;;;12.50;10.11;;;;;;;9.06;90.92;99877.59;2334684;68;20111;-81
2021/11/05 09:07:38;;;;;;;12.00;9.65;;;;;;;9.22;90.10;99878.59;2334694;69;20256;-80
2021/11/05 09:10:41;;;;;;;13.20;10.38;;;;;;;9.35;89.13;99893.41;2327652;69;20337;-81
2021/11/05 09:13:44;;;;;;;11.35;10.16;;;;;;;9.42;88.14;99893.44;2340162;68;20264;-79
2021/11/05 09:16:56;;;;;;;13.15;10.52;;;;;;;9.52;87.29;99903.91;2340299;69;20165;-81
2021/11/05 09:19:59;;;;;;;15.90;10.98;;;;;;;9.61;86.59;99905.69;2338765;69;20737;-81
2021/11/05 09:23:02;;;;;;;13.69;11.11;;;;;;;9.63;85.87;99912.63;2330480;68;20151;-81
2021/11/05 09:26:05;;;;;;;16.44;12.11;;;;;;;9.68;85.36;99923.88;2329017;69;20325;-81
2021/11/05 09:29:08;;;;;;;17.13;11.90;;;;;;;9.79;86.03;99933.50;2333312;69;20321;-80
2021/11/05 09:32:11;;;;;;;13.76;10.14;;;;;;;10.06;85.28;99922.44;2330830;68;20296;-81
2021/11/05 09:35:14;;;;;;;12.19;9.55;;;;;;;10.40;84.03;99939.94;2332159;69;20208;-81
2021/11/05 09:38:17;;;;;;;12.85;9.38;;;;;;;10.63;79.96;99941.81;2341599;69;20173;-81
2021/11/05 09:41:20;;;;;;;12.16;9.60;;;;;;;10.87;78.57;99939.28;2330999;69;20244;-80
2021/11/05 09:44:23;;;;;;;11.38;9.24;;;;;;;10.89;77.88;99943.63;2337040;68;20108;-81
2021/11/05 09:47:28;;;;;;;12.94;10.16;;;;;;;10.84;77.32;99950.53;2328328;69;20100;-82
2021/11/05 09:50:31;;;;;;;12.04;8.84;;;;;;;10.82;77.40;99951.41;2325286;69;20139;-80
2021/11/05 09:53:37;;;;;;;12.66;9.24;;;;;;;10.76;76.37;99952.22;2331689;68;20189;-80
2021/11/05 09:56:40;;;;;;;14.27;9.49;;;;;;;10.76;77.34;99953.97;2323997;69;20187;-79
2021/11/05 09:59:43;;;;;;;10.81;8.64;;;;;;;10.77;77.19;99960.88;2332025;69;20971;-80
2021/11/05 10:02:46;;;;;;;12.99;9.51;;;;;;;10.77;76.55;99966.09;2331934;68;20588;-80
2021/11/05 10:05:52;;;;;;;11.85;9.01;;;;;;;10.69;75.61;99979.03;2330557;68;20108;-80
2021/11/05 10:08:56;;;;;;;11.15;9.02;;;;;;;10.71;76.86;99974.72;2341827;68;20103;-81
2021/11/05 10:12:06;;;;;;;12.39;8.20;;;;;;;10.71;76.81;99976.47;2336996;68;20100;-81
2021/11/05 10:15:10;;;;;;;11.66;9.11;;;;;;;10.71;77.42;99985.13;2342829;68;20156;-80
2021/11/05 10:18:18;;;;;;;9.15;8.19;;;;;;;10.65;76.47;99979.03;2326799;66;30330;-80
2021/11/05 10:21:21;;;;;;;14.34;8.59;;;;;;;10.69;77.06;99996.38;2331165;69;20143;-80
2021/11/05 10:24:23;;;;;;;14.56;8.31;;;;;;;10.74;76.83;99994.66;2328315;68;20176;-81
2021/11/05 10:27:28;;;;;;;12.81;8.35;;;;;;;10.86;76.97;99986.91;2332790;69;20654;-80
2021/11/05 10:30:32;;;;;;;13.07;8.90;;;;;;;11.14;77.56;99990.50;2329536;66;42796;-80
2021/11/05 10:33:40;;;;;;;13.73;8.31;;;;;;;11.38;76.34;99987.06;2332481;68;20151;-80
2021/11/05 10:36:50;;;;;;;11.84;7.03;;;;;;;11.43;74.85;99991.41;2330790;69;20183;-80
2021/11/05 10:39:54;;;;;;;12.04;7.65;;;;;;;11.53;74.50;99991.44;2328579;69;20300;-80
2021/11/05 10:43:15;;;;;;;10.99;7.71;;;;;;;11.53;74.13;99989.69;2327407;68;20140;-80
2021/11/05 10:46:26;;;;;;;10.23;7.55;;;;;;;11.48;73.83;100000.06;2330956;69;20674;-80
2021/11/05 10:49:32;;;;;;;8.50;7.35;;;;;;;11.39;73.07;99996.59;2326017;69;20224;-80
2021/11/05 10:52:34;;;;;;;9.00;7.41;;;;;;;11.36;73.27;100001.81;2328781;69;20191;-80
2021/11/05 10:55:42;;;;;;;10.75;7.99;;;;;;;11.40;74.65;99996.59;2331111;68;20212;-80
2021/11/05 10:59:00;;;;;;;10.36;7.60;;;;;;;11.47;73.72;100005.28;2331750;69;20277;-79
2021/11/05 11:02:02;;;;;;;8.51;6.99;;;;;;;11.56;72.28;100007.03;2331051;69;20144;-80
2021/11/05 11:05:28;;;;;;;10.34;7.50;;;;;;;11.74;72.59;100001.84;2330906;68;20155;-80
2021/11/05 11:08:34;;;;;;;10.34;7.64;;;;;;;11.80;71.62;100010.56;2335945;69;20207;-79
2021/11/05 11:11:38;;;;;;;9.90;7.16;;;;;;;11.81;72.46;100006.22;2332211;69;20143;-80
2021/11/05 11:14:41;;;;;;;8.00;6.43;;;;;;;11.74;71.07;100014.88;2330011;68;20172;-80
2021/11/05 11:17:54;;;;;;;9.19;7.25;;;;;;;11.63;71.38;100019.16;2328732;66;42353;-79
2021/11/05 11:20:57;;;;;;;11.55;7.60;;;;;;;11.47;70.56;100010.47;2329817;69;20140;-80
2021/11/05 11:24:03;;;;;;;9.29;7.41;;;;;;;11.29;71.59;100010.44;2329841;68;20177;-80
2021/11/05 11:27:09;;;;;;;9.84;7.11;;;;;;;11.16;72.83;100013.03;2324808;69;20152;-80
2021/11/05 11:30:27;;;;;;;9.16;7.05;;;;;;;11.03;73.42;100019.03;2327104;68;20222;-80
2021/11/05 11:33:30;;;;;;;6.81;6.06;;;;;;;10.88;73.83;100026.75;2327630;68;20155;-80
2021/11/05 11:36:36;;;;;;;7.43;5.94;;;;;;;10.77;73.46;100028.41;2330153;69;20144;-80
2021/11/05 11:39:39;;;;;;;7.60;5.91;;;;;;;10.68;74.16;100024.06;2326522;69;20218;-80
2021/11/05 11:42:42;;;;;;;8.94;5.94;;;;;;;10.64;74.37;100021.44;2323857;69;20136;-80
2021/11/05 11:45:47;;;;;;;7.86;6.05;;;;;;;10.74;74.30;100026.69;2323827;68;29297;-80
2021/11/05 11:48:55;;;;;;;5.88;5.31;;;;;;;10.89;73.41;100020.69;2326292;69;20112;-79
2021/11/05 11:51:58;;;;;;;9.04;4.97;;;;;;;11.07;73.26;100023.38;2333060;69;20100;-79
2021/11/05 11:55:15;;;;;;;5.69;4.61;;;;;;;11.23;72.82;100023.44;2332542;68;20164;-79
2021/11/05 11:58:20;;;;;;;5.49;4.57;;;;;;;11.36;70.62;100020.88;2331017;69;20330;-80
2021/11/05 12:01:26;;;;;;;5.78;3.75;;;;;;;11.60;70.18;100026.97;2326429;66;27568;-80
2021/11/05 12:04:34;;;;;;;4.71;4.28;;;;;;;11.90;69.99;100027.06;2329671;68;20604;-80
2021/11/05 12:07:40;;;;;;;4.79;3.50;;;;;;;12.29;69.47;100025.28;2329289;69;20871;-80
2021/11/05 12:10:49;;;;;;;3.97;3.67;;;;;;;12.63;67.89;100026.97;2326727;69;20180;-80
2021/11/05 12:14:06;;;;;;;4.46;3.59;;;;;;;12.85;65.90;100026.91;2327514;68;20224;-79
2021/11/05 12:17:09;;;;;;;4.51;4.06;;;;;;;13.06;64.88;100020.72;2325026;66;29543;-80
2021/11/05 12:20:32;;;;;;;5.24;3.75;;;;;;;13.26;65.55;100034.56;2330676;69;20148;-80
2021/11/05 12:23:35;;;;;;;4.25;3.54;;;;;;;13.29;64.05;100031.97;2326949;68;20151;-80
2021/11/05 12:26:45;;;;;;;4.84;3.71;;;;;;;13.37;63.96;100040.63;2325646;69;20160;-80
2021/11/05 12:29:49;;;;;;;5.76;3.63;;;;;;;13.18;64.15;100042.44;2328312;69;20156;-80
2021/11/05 12:32:51;;;;;;;6.57;3.56;;;;;;;12.87;64.44;100044.25;2328519;66;22990;-80
2021/11/05 12:35:54;;;;;;;4.79;3.91;;;;;;;12.52;64.27;100049.56;2325759;69;20187;-79
2021/11/05 12:39:06;;;;;;;5.72;3.33;;;;;;;12.27;66.11;100050.47;2323120;69;20163;-80
2021/11/05 12:42:15;;;;;;;5.22;3.28;;;;;;;12.06;66.81;100060.03;2328071;69;20172;-80
2021/11/05 12:45:20;;;;;;;3.34;2.99;;;;;;;11.90;66.29;100054.81;2323737;66;32572;-79
2021/11/05 12:48:39;;;;;;;4.38;3.16;;;;;;;11.81;68.53;100053.06;2329345;69;20148;-80
2021/11/05 12:51:46;;;;;;;2.76;2.56;;;;;;;11.74;69.03;100061.69;2328075;69;20151;-80
2021/11/05 12:54:58;;;;;;;4.05;3.00;;;;;;;11.70;68.55;100060.81;2330685;68;20140;-79
2021/11/05 12:58:05;;;;;;;2.96;2.76;;;;;;;11.68;68.45;100065.16;2328154;69;20152;-80
2021/11/05 13:01:13;;;;;;;3.10;2.36;;;;;;;11.62;67.97;100062.53;2327621;66;28131;-80
2021/11/05 13:04:17;;;;;;;4.28;2.79;;;;;;;11.58;67.50;100066.00;2330445;68;20832;-79
2021/11/05 13:07:20;;;;;;;2.54;2.16;;;;;;;11.55;68.80;100059.91;2326266;69;20189;-78
2021/11/05 13:10:31;;;;;;;2.38;1.99;;;;;;;11.44;67.56;100059.88;2319730;69;20197;-78
2021/11/05 13:13:37;;;;;;;3.10;2.64;;;;;;;11.40;67.86;100059.00;2307093;68;20636;-78
2021/11/05 13:16:52;;;;;;;2.81;1.83;;;;;;;11.38;67.88;100063.34;2311071;67;20200;-78
2021/11/05 13:20:01;;;;;;;3.35;2.09;;;;;;;11.38;68.85;100062.47;2320607;68;20155;-78
2021/11/05 13:23:05;;;;;;;3.16;1.80;;;;;;;11.39;67.78;100069.41;2321895;68;20164;-79
2021/11/05 13:26:07;;;;;;;4.78;2.06;;;;;;;11.38;67.77;100071.13;2331418;69;20140;-79
2021/11/05 13:29:10;;;;;;;2.75;1.90;;;;;;;11.44;67.92;100076.34;2330328;69;20171;-79
2021/11/05 13:32:22;;;;;;;4.16;2.13;;;;;;;11.48;67.54;100075.50;2334311;66;33322;-80
2021/11/05 13:35:26;;;;;;;4.34;2.04;;;;;;;11.45;67.53;100079.81;2329340;68;20156;-79
2021/11/05 13:38:33;;;;;;;2.45;1.63;;;;;;;11.37;67.34;100074.59;2332811;69;20216;-79
2021/11/05 13:41:37;;;;;;;2.88;1.27;;;;;;;11.32;67.49;100088.47;2327813;69;20221;-80
2021/11/05 13:44:40;;;;;;;4.75;1.20;;;;;;;11.25;66.52;100084.94;2332566;68;20179;-79
2021/11/05 13:47:45;;;;;;;2.58;1.11;;;;;;;11.23;67.43;100096.22;2331142;66;47988;-80
2021/11/05 13:50:49;;;;;;;3.31;1.00;;;;;;;11.18;66.69;100101.41;2331311;69;20190;-79
2021/11/05 13:53:56;;;;;;;2.81;1.49;;;;;;;11.17;67.96;100105.72;2328696;68;20143;-79
2021/11/05 13:57:00;;;;;;;2.79;1.48;;;;;;;11.13;68.91;100101.38;2330899;69;20168;-79
2021/11/05 14:00:04;;;;;;;3.20;1.20;;;;;;;11.13;69.19;100108.28;2334213;69;20268;-79
2021/11/05 14:03:29;;;;;;;1.66;0.96;;;;;;;11.10;69.35;100106.53;2336222;69;20216;-79
2021/11/05 14:06:41;;;;;;;1.13;0.81;;;;;;;11.06;69.42;100110.00;2331574;69;20186;-80
2021/11/05 14:09:45;;;;;;;2.05;1.00;;;;;;;11.04;69.44;100118.66;2331146;69;20205;-79
2021/11/05 14:12:55;;;;;;;4.35;1.00;;;;;;;11.00;68.62;100122.97;2330148;69;20252;-79
2021/11/05 14:16:11;;;;;;;2.09;0.80;;;;;;;11.02;69.96;100129.03;2329860;66;80782;-80
2021/11/05 14:19:16;;;;;;;2.89;0.91;;;;;;;11.02;70.08;100129.03;2333656;69;20160;-79
2021/11/05 14:22:19;;;;;;;1.11;0.89;;;;;;;11.02;69.18;100123.84;2334683;69;20189;-79
2021/11/05 14:25:25;;;;;;;1.66;0.80;;;;;;;11.04;69.84;100127.31;2333115;68;20184;-79
2021/11/05 14:28:28;;;;;;;1.73;1.04;;;;;;;11.07;70.43;100129.06;2329645;69;20171;-79
2021/11/05 14:32:04;;;;;;;2.44;1.00;;;;;;;11.08;69.95;100133.38;2329791;66;30440;-79
2021/11/05 14:35:14;;;;;;;1.92;0.80;;;;;;;11.08;68.09;100130.78;2324350;69;20191;-79
2021/11/05 14:38:17;;;;;;;1.42;0.64;;;;;;;11.07;69.00;100136.84;2333045;69;20212;-79
2021/11/05 14:41:28;;;;;;;3.80;0.77;;;;;;;11.04;70.62;100142.03;2335866;69;20152;-79
2021/11/05 14:44:32;;;;;;;2.15;0.68;;;;;;;11.02;72.06;100139.44;2332302;68;20144;-79
2021/11/05 14:47:39;;;;;;;1.77;0.80;;;;;;;11.00;72.08;100148.09;2334144;66;35234;-79
2021/11/05 14:50:46;;;;;;;0.96;0.79;;;;;;;10.98;71.61;100144.59;2333009;69;20124;-79
2021/11/05 14:53:53;;;;;;;2.36;0.75;;;;;;;10.96;71.25;100146.34;2332104;68;20157;-78
2021/11/05 14:57:11;;;;;;;1.99;0.80;;;;;;;10.91;73.31;100151.47;2331308;69;20235;-79
2021/11/05 15:00:19;;;;;;;2.70;0.60;;;;;;;10.86;75.19;100159.25;2336285;69;20104;-79
2021/11/05 15:03:34;;;;;;;1.45;0.70;;;;;;;10.83;76.00;100156.63;2330304;68;20164;-79
2021/11/05 15:06:42;;;;;;;1.79;0.49;;;;;;;10.80;76.73;100161.81;2330783;69;20131;-79
2021/11/05 15:09:45;;;;;;;1.27;0.60;;;;;;;10.76;76.63;100170.41;2331530;69;20148;-79
2021/11/05 15:12:47;;;;;;;3.69;0.63;;;;;;;10.71;77.23;100169.53;2331393;69;20261;-79
2021/11/05 15:15:57;;;;;;;2.81;0.70;;;;;;;10.65;77.56;100172.09;2333380;68;20225;-79
2021/11/05 15:19:01;;;;;;;1.95;0.59;;;;;;;10.60;76.00;100178.97;2330184;69;20096;-79
2021/11/05 15:22:04;;;;;;;1.50;0.60;;;;;;;10.53;77.08;100177.16;2330986;69;20144;-79
2021/11/05 15:25:07;;;;;;;2.01;0.64;;;;;;;10.47;77.59;100188.38;2334127;68;20156;-79
2021/11/05 15:28:10;;;;;;;1.08;0.60;;;;;;;10.39;77.92;100184.84;2333668;69;20180;-79
2021/11/05 15:31:13;;;;;;;1.46;1.02;;;;;;;10.29;78.55;100183.91;2329828;69;20116;-79
2021/11/05 15:34:16;;;;;;;1.99;0.69;;;;;;;10.21;78.83;100188.13;2331029;68;20132;-79
2021/11/05 15:37:18;;;;;;;1.36;0.73;;;;;;;10.10;78.78;100192.31;2331642;69;20185;-79
2021/11/05 15:40:21;;;;;;;1.86;0.70;;;;;;;10.04;79.16;100200.03;2331353;69;20299;-79
2021/11/05 15:43:26;;;;;;;1.20;0.75;;;;;;;9.93;79.36;100205.13;2330162;68;20147;-79
2021/11/05 15:46:28;;;;;;;1.51;0.50;;;;;;;9.89;79.22;100210.25;2331301;69;20193;-79
2021/11/05 15:49:31;;;;;;;2.84;0.99;;;;;;;9.77;80.30;100210.97;2330153;69;20280;-79
2021/11/05 15:52:34;;;;;;;2.09;0.56;;;;;;;9.68;81.40;100216.91;2332466;69;20225;-79
2021/11/05 15:55:36;;;;;;;0.66;0.46;;;;;;;9.61;81.86;100212.50;2333271;68;20144;-79
2021/11/05 15:58:41;;;;;;;0.96;0.56;;;;;;;9.58;81.99;100215.06;2334172;69;20183;-79
2021/11/05 16:01:44;;;;;;;2.16;0.52;;;;;;;9.52;82.07;100211.53;2332039;66;35470;-79
2021/11/05 16:04:47;;;;;;;1.34;0.56;;;;;;;9.45;82.44;100223.53;2331426;68;20140;-78
2021/11/05 16:07:51;;;;;;;1.40;0.70;;;;;;;9.37;82.98;100226.03;2326503;69;20230;-79
2021/11/05 16:10:54;;;;;;;0.75;0.50;;;;;;;9.33;83.30;100231.13;2333477;69;20148;-79
2021/11/05 16:13:56;;;;;;;3.33;0.54;;;;;;;9.27;83.81;100236.22;2333984;68;20396;-79
2021/11/05 16:16:59;;;;;;;0.50;0.50;;;;;;;9.19;83.91;100237.84;2329976;69;20163;-79
2021/11/05 16:20:04;;;;;;;0.63;0.50;;;;;;;9.13;84.25;100241.19;2334129;69;20291;-79
2021/11/05 16:23:08;;;;;;;2.84;0.74;;;;;;;9.09;84.46;100242.00;2333875;68;20313;-79
2021/11/05 16:26:11;;;;;;;2.04;0.47;;;;;;;9.04;84.00;100251.44;2346457;69;20293;-80
2021/11/05 16:29:14;;;;;;;3.75;0.70;;;;;;;9.03;83.65;100249.69;2335870;69;20281;-80
2021/11/05 16:32:17;;;;;;;3.38;0.65;;;;;;;8.96;83.91;100248.72;2328016;66;37618;-79
2021/11/05 16:35:20;;;;;;;1.40;0.80;;;;;;;8.86;84.09;100262.38;2330800;68;20396;-79
2021/11/05 16:38:23;;;;;;;5.51;0.77;;;;;;;8.75;84.56;100259.59;2328994;69;20344;-79
2021/11/05 16:41:25;;;;;;;1.91;0.60;;;;;;;8.67;84.53;100255.16;2322130;69;20356;-79
2021/11/05 16:44:29;;;;;;;1.66;0.86;;;;;;;8.54;84.50;100264.41;2318700;69;20308;-79
2021/11/05 16:47:32;;;;;;;0.64;0.64;;;;;;;8.39;84.67;100264.13;2318068;66;24266;-79
2021/11/05 16:50:37;;;;;;;4.22;0.64;;;;;;;8.26;84.99;100269.88;2323919;69;20297;-79
2021/11/05 16:53:42;;;;;;;2.42;0.80;;;;;;;8.11;85.04;100278.25;2325178;69;20673;-80
2021/11/05 16:56:46;;;;;;;2.96;0.70;;;;;;;7.99;85.49;100285.75;2320305;69;20372;-79
2021/11/05 16:59:49;;;;;;;1.60;0.80;;;;;;;7.86;85.78;100279.44;2325139;69;21129;-79
2021/11/05 17:02:51;;;;;;;2.80;0.80;;;;;;;7.72;85.57;100281.75;2321516;66;30137;-79
2021/11/05 17:05:54;;;;;;;1.76;0.70;;;;;;;7.64;85.81;100285.00;2321934;69;20312;-79
2021/11/05 17:09:00;;;;;;;1.33;0.70;;;;;;;7.51;85.84;100286.44;2317170;69;20381;-81
2021/11/05 17:12:07;;;;;;;1.46;0.70;;;;;;;7.39;86.14;100294.81;2308149;69;20306;-80
2021/11/05 17:15:16;;;;;;;0.90;0.70;;;;;;;7.32;86.33;100304.94;2313798;69;20388;-80
2021/11/05 17:18:25;;;;;;;0.86;0.57;;;;;;;7.27;86.77;100305.72;2323587;69;23829;-80
2021/11/05 17:21:48;;;;;;;2.11;0.74;;;;;;;7.17;87.23;100302.88;2303562;69;20899;-80
2021/11/05 17:24:52;;;;;;;2.24;0.69;;;;;;;7.08;87.71;100308.69;2289832;69;20295;-80
2021/11/05 17:28:03;;;;;;;1.51;0.90;;;;;;;7.03;87.78;100304.25;2294103;69;20367;-80
2021/11/05 17:31:14;;;;;;;1.36;0.69;;;;;;;6.96;88.04;100308.38;2293443;66;24206;-79
2021/11/05 17:34:16;;;;;;;1.05;0.91;;;;;;;6.92;88.22;100322.94;2293306;69;20158;-79
2021/11/05 17:37:21;;;;;;;1.91;0.80;;;;;;;6.88;88.37;100323.69;2305373;69;20795;-79
2021/11/05 17:40:28;;;;;;;3.78;1.00;;;;;;;6.81;88.42;100329.53;2317347;69;20829;-79
2021/11/05 17:43:31;;;;;;;6.43;1.19;;;;;;;6.77;88.84;100330.28;2324522;68;20173;-79
2021/11/05 17:46:35;;;;;;;2.39;0.89;;;;;;;6.77;89.24;100334.56;2321411;66;21605;-79
2021/11/05 17:49:38;;;;;;;1.16;0.90;;;;;;;6.73;89.41;100343.06;2318235;69;20933;-79
2021/11/05 17:52:43;;;;;;;2.90;0.94;;;;;;;6.73;89.69;100340.50;2321925;69;20355;-79
2021/11/05 17:55:51;;;;;;;1.88;0.90;;;;;;;6.72;89.84;100349.06;2325621;69;20373;-79
2021/11/05 17:58:53;;;;;;;1.76;0.91;;;;;;;6.73;90.01;100356.84;2324976;69;20352;-79
2021/11/05 18:01:56;;;;;;;2.05;0.80;;;;;;;6.75;90.16;100357.75;2320548;66;21857;-78
2021/11/05 18:04:59;;;;;;;1.46;1.02;;;;;;;6.78;90.15;100362.13;2320383;68;20369;-78
2021/11/05 18:08:04;;;;;;;1.11;0.99;;;;;;;6.81;90.35;100363.06;2321651;69;20305;-78
2021/11/05 18:11:06;;;;;;;1.86;0.85;;;;;;;6.86;90.48;100371.84;2321227;69;20296;-78
2021/11/05 18:14:14;;;;;;;1.83;1.02;;;;;;;6.92;90.36;100371.09;2321065;68;20369;-78
2021/11/05 18:17:18;;;;;;;3.54;0.88;;;;;;;6.91;90.38;100384.84;2320584;66;30677;-78
2021/11/05 18:20:21;;;;;;;1.04;0.77;;;;;;;6.93;90.58;100381.47;2321920;69;20452;-78
2021/11/05 18:23:23;;;;;;;2.70;0.90;;;;;;;6.94;90.63;100387.50;2320578;68;20368;-77
2021/11/05 18:26:29;;;;;;;1.34;0.70;;;;;;;6.93;90.76;100378.88;2320642;69;20409;-78
2021/11/05 18:29:32;;;;;;;0.88;0.77;;;;;;;6.91;90.69;100395.19;2321358;69;20292;-78
2021/11/05 18:32:35;;;;;;;3.05;1.61;;;;;;;6.91;90.82;100388.31;2318679;66;21248;-78
2021/11/05 18:35:37;;;;;;;16.00;8.60;;;;;;;6.92;90.90;100392.63;2322156;68;20362;-78
2021/11/05 18:38:44;;;;;;;8.93;3.59;;;;;;;6.90;90.83;100393.44;2321723;69;20821;-78
2021/11/05 18:41:51;;;;;;;5.38;2.99;;;;;;;6.86;90.69;100399.34;2322773;69;20305;-78
2021/11/05 18:45:01;;;;;;;9.65;3.04;;;;;;;6.89;90.58;100410.63;2323248;68;20337;-78
2021/11/05 18:48:08;;;;;;;9.57;3.92;;;;;;;6.91;90.43;100405.50;2322416;66;24014;-78
2021/11/05 18:51:11;;;;;;;4.66;3.34;;;;;;;6.87;90.74;100414.00;2321926;69;20621;-78
2021/11/05 18:54:15;;;;;;;5.30;3.04;;;;;;;6.84;90.76;100414.81;2322832;68;20315;-78
2021/11/05 18:57:18;;;;;;;8.09;2.70;;;;;;;6.86;90.85;100420.88;2322295;69;20288;-78
2021/11/05 19:00:29;;;;;;;5.71;2.55;;;;;;;6.85;90.69;100418.25;2320576;69;20377;-78
2021/11/05 19:03:34;;;;;;;4.06;2.20;;;;;;;6.84;91.02;100421.69;2320201;68;20304;-78
2021/11/05 19:06:37;;;;;;;6.47;1.89;;;;;;;6.81;91.06;100424.16;2321225;69;20322;-78
2021/11/05 19:09:39;;;;;;;3.26;2.19;;;;;;;6.82;91.32;100428.47;2321437;69;20280;-78
2021/11/05 19:12:42;;;;;;;3.49;1.90;;;;;;;6.82;91.30;100433.63;2315467;69;20331;-78
2021/11/05 19:15:45;;;;;;;3.92;1.90;;;;;;;6.81;91.37;100432.75;2319360;68;20320;-78
2021/11/05 19:18:52;;;;;;;3.99;1.81;;;;;;;6.83;91.40;100433.72;2322338;69;20361;-78
2021/11/05 19:21:55;;;;;;;3.19;1.71;;;;;;;6.84;91.59;100434.59;2320356;69;21051;-78